createdAt,value
2022-08-05T00:07:59.412Z,5.90
2022-08-05T00:17:48.651Z,11.10
2022-08-05T00:27:54.358Z,8.00
2022-08-05T00:38:01.305Z,6.30
2022-08-05T00:48:10.284Z,7.40
2022-08-05T00:58:19.246Z,5.20
2022-08-05T01:08:40.028Z,5.40
2022-08-05T01:18:56.548Z,7.20
2022-08-05T01:29:05.555Z,6.50
2022-08-05T01:39:13.422Z,5.10
2022-08-05T01:49:42.718Z,6.50
2022-08-05T01:59:55.932Z,7.20
2022-08-05T02:10:07.998Z,7.20
2022-08-05T02:20:20.487Z,4.80
2022-08-05T02:30:30.305Z,8.20
2022-08-05T02:40:36.744Z,5.40
2022-08-05T02:50:44.392Z,7.30
2022-08-05T03:00:51.823Z,7.40
2022-08-05T03:11:53.165Z,8.90
2022-08-05T03:21:23.567Z,5.00
2022-08-05T03:31:56.825Z,6.80
2022-08-05T03:42:01.577Z,7.10
2022-08-05T03:52:38.841Z,7.20
2022-08-05T04:02:52.062Z,6.10
2022-08-05T04:13:04.917Z,10.30
2022-08-05T04:23:12.684Z,7.40
2022-08-05T04:33:54.901Z,6.10
2022-08-05T04:43:52.042Z,6.20
2022-08-05T04:53:58.673Z,6.30
2022-08-05T05:04:07.480Z,8.90
2022-08-05T05:14:15.998Z,5.20
2022-08-05T05:24:22.445Z,4.00
2022-08-05T05:34:48.238Z,3.60
2022-08-05T05:44:59.531Z,3.00
2022-08-05T05:55:13.088Z,3.30
2022-08-05T06:05:20.557Z,2.40
2022-08-05T06:16:30.167Z,2.90
2022-08-05T06:26:13.831Z,5.30
2022-08-05T06:36:18.646Z,4.00
2022-08-05T06:46:31.970Z,5.30
2022-08-05T06:56:37.782Z,3.70
2022-08-05T07:06:43.618Z,3.70
2022-08-05T07:17:59.875Z,7.40
2022-08-05T07:27:18.211Z,5.30
2022-08-05T07:37:24.016Z,4.40
2022-08-05T07:47:42.119Z,5.70
2022-08-05T07:57:56.230Z,5.50
2022-08-05T08:08:12.467Z,5.90
2022-08-05T08:18:21.012Z,1.80
2022-08-05T08:28:36.746Z,3.80
2022-08-05T08:38:43.301Z,2.60
2022-08-05T08:50:05.840Z,4.10
2022-08-05T08:59:27.607Z,4.60
2022-08-05T09:09:40.089Z,3.30
2022-08-05T09:20:01.810Z,2.30
2022-08-05T09:30:16.343Z,4.40
2022-08-05T09:40:41.148Z,2.40
2022-08-05T09:51:00.263Z,4.20
2022-08-05T10:01:13.290Z,2.40
2022-08-05T10:11:20.389Z,2.20
2022-08-05T10:21:35.242Z,2.70
2022-08-05T10:32:54.991Z,3.10
2022-08-05T10:42:18.481Z,4.50
2022-08-05T10:52:49.407Z,6.80
2022-08-05T11:03:25.435Z,2.40
2022-08-05T11:13:55.075Z,3.50
2022-08-05T11:24:29.769Z,2.50
2022-08-05T11:34:47.447Z,3.10
2022-08-05T11:45:06.108Z,3.80
2022-08-05T11:55:31.931Z,3.10
2022-08-05T12:05:43.674Z,4.10
2022-08-05T12:15:50.413Z,4.50
2022-08-05T12:26:01.539Z,2.40
2022-08-05T12:36:09.749Z,6.50
2022-08-05T12:46:28.766Z,2.40
2022-08-05T12:56:37.325Z,3.20
2022-08-05T13:06:51.648Z,2.70
2022-08-05T13:16:59.689Z,2.60
2022-08-05T13:27:05.689Z,2.90
2022-08-05T13:37:27.188Z,3.80
2022-08-05T13:48:09.767Z,2.70
2022-08-05T13:58:06.213Z,3.00
2022-08-05T14:08:20.826Z,4.00
2022-08-05T14:18:33.420Z,2.50
2022-08-05T14:28:52.262Z,3.70
2022-08-05T14:38:58.521Z,1.50
2022-08-05T14:49:09.173Z,2.00
2022-08-05T14:59:15.216Z,1.70
2022-08-05T15:09:51.356Z,2.60
2022-08-05T15:19:48.906Z,3.20
2022-08-05T15:29:56.790Z,3.70
2022-08-05T15:40:59.596Z,2.60
2022-08-05T15:50:29.041Z,8.00
2022-08-05T16:00:50.538Z,2.90
2022-08-05T16:11:01.808Z,2.50
2022-08-05T16:21:07.707Z,2.00
2022-08-05T16:31:13.518Z,2.30
2022-08-05T16:42:12.301Z,3.70
2022-08-05T16:51:50.910Z,5.70
2022-08-05T17:02:00.849Z,7.20
2022-08-05T17:12:08.017Z,3.30
2022-08-05T17:22:24.588Z,2.60
2022-08-05T17:32:33.861Z,4.60
2022-08-05T17:42:49.727Z,3.80
2022-08-05T17:52:58.995Z,3.90
2022-08-05T18:03:05.213Z,4.60
2022-08-05T18:13:13.907Z,7.90
2022-08-05T18:23:19.782Z,5.40
2022-08-05T18:33:27.816Z,4.60
2022-08-05T18:43:52.788Z,4.70
2022-08-05T18:53:58.571Z,6.50
2022-08-05T19:04:05.323Z,7.60
2022-08-05T19:14:53.271Z,5.50
2022-08-05T19:24:37.279Z,6.10
2022-08-05T19:35:05.847Z,7.40
2022-08-05T19:45:14.515Z,6.50
2022-08-05T19:56:14.497Z,8.00
2022-08-05T20:05:51.257Z,9.90
2022-08-05T20:15:57.904Z,8.30
2022-08-05T20:26:03.939Z,13.00
2022-08-05T20:36:12.209Z,6.10
2022-08-05T20:46:25.484Z,8.10
2022-08-05T20:56:41.930Z,7.90
2022-08-05T21:06:48.776Z,13.30
2022-08-05T21:16:56.957Z,7.00
2022-08-05T21:27:02.936Z,8.30
2022-08-05T21:37:09.228Z,13.70
2022-08-05T21:47:32.802Z,12.50
2022-08-05T21:57:42.622Z,13.90
2022-08-05T22:07:59.082Z,9.10
2022-08-05T22:18:08.793Z,6.00
2022-08-05T22:28:17.120Z,7.50
2022-08-05T22:38:23.985Z,7.70
2022-08-05T22:48:31.567Z,6.50
2022-08-05T22:58:37.799Z,6.80
2022-08-05T23:08:50.443Z,9.70
2022-08-05T23:18:58.162Z,8.10
2022-08-05T23:29:03.967Z,7.90
2022-08-05T23:39:16.604Z,8.10
2022-08-05T23:49:34.096Z,22.60
